Time;durP1;ratioP1;P1;durP2;ratioP2;P2;SDS_P1;SDS_P2;PMS_P1;PMS_P2;Temp;Humidity;BMP_temperature;BMP_pressure;BME280_temperature;BME280_humidity;BME280_pressure;Samples;Min_cycle;Max_cycle;Signal;HPM_P1;HPM_P2
2021/06/05 00:02:23;;;;;;;24.30;21.25;;;18.90;99.90;;;;;;4986500;28;20027;-83
2021/06/05 00:04:53;;;;;;;25.45;22.70;;;18.90;99.90;;;;;;4986835;28;20026;-84
2021/06/05 00:07:18;;;;;;;24.85;22.17;;;18.80;99.90;;;;;;4985389;28;20035;-83
2021/06/05 00:09:44;;;;;;;22.85;20.40;;;18.80;99.90;;;;;;4986951;28;20540;-81
2021/06/05 00:12:12;;;;;;;23.70;18.63;;;18.80;99.90;;;;;;4985507;28;20034;-84
2021/06/05 00:14:38;;;;;;;23.90;21.33;;;18.80;99.90;;;;;;5013716;28;20057;-83
2021/06/05 00:17:04;;;;;;;24.38;21.77;;;18.80;99.90;;;;;;5005824;28;20050;-83
2021/06/05 00:19:29;;;;;;;25.70;22.83;;;18.80;99.90;;;;;;5006173;28;20090;-83
2021/06/05 00:21:55;;;;;;;24.75;22.20;;;18.70;99.90;;;;;;5004913;28;20061;-83
2021/06/05 00:24:23;;;;;;;30.02;24.90;;;18.70;99.90;;;;;;5006289;28;20033;-83
2021/06/05 00:26:50;;;;;;;26.13;23.40;;;18.70;99.90;;;;;;5006180;28;20038;-83
2021/06/05 00:29:17;;;;;;;25.88;22.23;;;18.70;99.90;;;;;;5004916;28;20089;-83
2021/06/05 00:31:43;;;;;;;31.20;27.77;;;18.70;99.90;;;;;;5006134;28;20484;-82
2021/06/05 00:34:09;;;;;;;29.65;26.45;;;18.70;99.90;;;;;;5005923;28;20042;-83
2021/06/05 00:36:36;;;;;;;28.08;25.00;;;18.70;99.90;;;;;;5004639;28;20053;-82
2021/06/05 00:39:03;;;;;;;26.83;23.98;;;18.70;99.90;;;;;;5004864;28;20030;-82
2021/06/05 00:41:29;;;;;;;24.58;20.73;;;18.70;99.90;;;;;;5004722;28;20022;-83
2021/06/05 00:44:00;;;;;;;27.35;23.95;;;18.70;99.90;;;;;;5004731;28;20030;-83
2021/06/05 00:46:28;;;;;;;26.70;23.17;;;18.70;99.90;;;;;;5020921;28;20026;-82
2021/06/05 00:48:55;;;;;;;21.43;18.40;;;18.70;99.90;;;;;;4990144;28;20033;-83
2021/06/05 00:51:55;;;;;;;25.17;22.25;;;18.70;99.90;;;;;;5024363;28;20536;-82
2021/06/05 00:54:25;;;;;;;28.05;23.02;;;18.70;99.90;;;;;;5008193;28;20390;-82
2021/06/05 00:56:54;;;;;;;27.55;23.65;;;18.70;99.90;;;;;;5009358;28;20050;-82
2021/06/05 00:59:23;;;;;;;22.92;20.20;;;18.70;99.90;;;;;;4992361;28;20442;-82
2021/06/05 01:01:49;;;;;;;26.65;22.30;;;18.60;99.90;;;;;;5024443;28;20022;-82
2021/06/05 01:04:15;;;;;;;25.90;22.23;;;18.50;99.90;;;;;;5008080;28;20026;-83
2021/06/05 01:06:50;;;;;;;27.88;22.35;;;18.40;99.90;;;;;;5009037;28;20030;-83
2021/06/05 01:09:45;;;;;;;25.42;22.10;;;18.40;99.90;;;;;;5007929;28;20097;-82
2021/06/05 01:12:33;;;;;;;23.25;20.52;;;18.40;99.90;;;;;;5009159;28;20030;-82
2021/06/05 01:15:05;;;;;;;22.30;19.95;;;18.40;99.90;;;;;;5024111;28;20045;-83
2021/06/05 01:17:35;;;;;;;23.67;21.20;;;18.40;99.90;;;;;;5008932;28;20034;-83
2021/06/05 01:20:11;;;;;;;23.08;20.58;;;18.30;99.90;;;;;;5008876;28;20055;-83
2021/06/05 01:23:13;;;;;;;23.77;21.02;;;18.20;99.90;;;;;;5007597;28;20030;-82
2021/06/05 01:25:53;;;;;;;24.77;20.48;;;18.20;99.90;;;;;;5007602;28;20034;-82
2021/06/05 01:28:25;;;;;;;23.63;20.08;;;18.20;99.90;;;;;;5007468;28;20023;-83
2021/06/05 01:30:56;;;;;;;25.95;21.20;;;18.20;99.90;;;;;;5008768;28;20038;-82
2021/06/05 01:33:27;;;;;;;25.52;20.85;;;18.10;99.90;;;;;;5007185;28;20022;-82
2021/06/05 01:36:00;;;;;;;23.15;20.33;;;18.00;99.90;;;;;;5007226;28;20030;-82
2021/06/05 01:38:28;;;;;;;22.50;20.10;;;18.00;99.90;;;;;;5008545;28;20078;-82
2021/06/05 01:40:55;;;;;;;24.63;20.83;;;18.00;99.90;;;;;;5007344;28;20411;-82
2021/06/05 01:43:26;;;;;;;24.88;22.20;;;18.00;99.90;;;;;;5007001;28;20050;-82
2021/06/05 01:45:57;;;;;;;22.13;19.80;;;18.10;99.90;;;;;;5007210;28;20026;-82
2021/06/05 01:48:24;;;;;;;24.52;20.90;;;18.10;99.90;;;;;;5007104;28;20041;-82
2021/06/05 01:50:53;;;;;;;24.27;21.35;;;18.20;99.90;;;;;;5023431;28;20114;-83
2021/06/05 01:53:22;;;;;;;23.20;20.70;;;18.10;99.90;;;;;;5006937;28;20045;-83
2021/06/05 01:55:54;;;;;;;;;;;18.20;99.90;;;;;;5007516;28;20494;-82
2021/06/05 01:58:25;;;;;;;19.83;16.90;;;18.20;99.90;;;;;;5006922;28;20383;-81
2021/06/05 02:01:08;;;;;;;21.35;18.75;;;18.20;99.90;;;;;;5022642;28;20031;-82
2021/06/05 02:03:40;;;;;;;22.02;18.05;;;18.20;99.90;;;;;;5006860;28;20022;-80
2021/06/05 02:06:21;;;;;;;23.35;19.20;;;18.30;99.90;;;;;;5016254;23;20018;-82
2021/06/05 02:08:47;;;;;;;20.58;17.95;;;18.40;99.90;;;;;;4999598;28;20070;-82
2021/06/05 02:11:17;;;;;;;20.90;18.33;;;18.40;99.90;;;;;;4984535;28;20050;-82
2021/06/05 02:13:55;;;;;;;21.98;19.52;;;18.40;99.90;;;;;;4983481;28;20047;-83
2021/06/05 02:16:25;;;;;;;20.88;18.60;;;18.30;99.90;;;;;;4984173;28;20031;-83
2021/06/05 02:18:54;;;;;;;22.80;18.30;;;18.30;99.90;;;;;;4983928;28;20058;-84
2021/06/05 02:21:30;;;;;;;21.98;17.50;;;18.30;99.90;;;;;;4983886;28;20062;-82
2021/06/05 02:24:15;;;;;;;20.33;17.93;;;18.30;99.90;;;;;;4983721;28;20031;-83
2021/06/05 02:26:43;;;;;;;19.45;17.20;;;18.30;99.90;;;;;;4971062;28;20043;-83
2021/06/05 02:29:12;;;;;;;22.05;18.17;;;18.40;99.90;;;;;;4987019;28;20038;-81
2021/06/05 02:31:39;;;;;;;21.10;18.88;;;18.30;99.90;;;;;;4986994;28;20042;-82
2021/06/05 02:34:08;;;;;;;21.25;18.98;;;18.30;99.90;;;;;;4986570;28;20047;-82
2021/06/05 02:36:39;;;;;;;22.38;18.60;;;18.30;99.90;;;;;;4986761;28;20027;-81
2021/06/05 02:39:05;;;;;;;19.63;17.40;;;18.30;99.90;;;;;;4986719;28;20039;-83
2021/06/05 02:41:31;;;;;;;19.17;15.25;;;18.40;99.90;;;;;;4988002;28;20031;-83
2021/06/05 02:43:56;;;;;;;19.90;17.77;;;18.40;99.90;;;;;;4983248;28;20035;-82
2021/06/05 02:46:36;;;;;;;22.67;19.60;;;18.40;99.90;;;;;;4967368;28;20134;-82
2021/06/05 02:49:23;;;;;;;24.88;20.98;;;18.50;99.90;;;;;;4967251;29;20267;-81
2021/06/05 02:51:54;;;;;;;22.85;19.52;;;18.40;99.90;;;;;;4983210;28;20099;-83
2021/06/05 02:54:27;;;;;;;30.60;24.58;;;18.40;99.90;;;;;;4983379;28;20086;-83
2021/06/05 02:56:54;;;;;;;36.30;28.83;;;18.30;99.90;;;;;;4983340;28;20082;-83
2021/06/05 02:59:21;;;;;;;34.28;29.58;;;18.20;99.90;;;;;;4983258;28;20035;-83
2021/06/05 03:01:52;;;;;;;37.60;32.80;;;18.00;99.90;;;;;;4982901;28;20027;-84
2021/06/05 03:04:22;;;;;;;35.42;31.55;;;18.00;99.90;;;;;;4967093;29;20055;-83
2021/06/05 03:06:48;;;;;;;37.90;31.95;;;17.90;99.90;;;;;;4982681;28;20111;-82
2021/06/05 03:09:18;;;;;;;32.80;27.90;;;17.90;99.90;;;;;;4983090;28;20031;-82
2021/06/05 03:11:46;;;;;;;34.22;28.35;;;17.90;99.90;;;;;;4967238;28;20031;-83
2021/06/05 03:14:13;;;;;;;34.97;29.38;;;17.80;99.90;;;;;;4982597;28;20047;-83
2021/06/05 03:16:40;;;;;;;35.55;30.42;;;17.70;99.90;;;;;;4966769;28;20107;-82
2021/06/05 03:19:07;;;;;;;37.50;31.42;;;17.70;99.90;;;;;;4982811;28;20086;-81
2021/06/05 03:21:36;;;;;;;42.92;34.38;;;17.60;99.90;;;;;;4982345;28;20118;-83
2021/06/05 03:24:15;;;;;;;36.65;32.08;;;17.60;99.90;;;;;;4982813;28;20039;-84
2021/06/05 03:26:42;;;;;;;41.95;34.83;;;17.50;99.90;;;;;;4985869;28;20066;-83
2021/06/05 03:29:10;;;;;;;43.22;35.67;;;17.50;99.90;;;;;;4985881;28;20046;-83
2021/06/05 03:31:39;;;;;;;48.95;38.30;;;17.50;99.90;;;;;;4986017;28;20023;-83
2021/06/05 03:34:05;;;;;;;48.15;37.13;;;17.40;99.90;;;;;;4985599;28;20471;-84
2021/06/05 03:36:31;;;;;;;48.38;38.40;;;17.40;99.90;;;;;;4969848;28;20026;-83
2021/06/05 03:38:59;;;;;;;58.25;44.28;;;17.40;99.90;;;;;;4985577;28;20102;-84
2021/06/05 03:41:35;;;;;;;54.45;43.50;;;17.30;99.90;;;;;;4985967;28;20061;-82
2021/06/05 03:44:03;;;;;;;55.75;42.45;;;17.30;99.90;;;;;;4969243;28;20043;-83
2021/06/05 03:46:29;;;;;;;52.20;40.58;;;17.30;99.90;;;;;;4986391;28;20041;-84
2021/06/05 03:49:00;;;;;;;62.50;50.05;;;17.30;99.90;;;;;;4969728;28;20030;-83
2021/06/05 03:51:26;;;;;;;59.67;46.38;;;17.20;99.90;;;;;;5001106;28;20026;-86
2021/06/05 03:53:52;;;;;;;64.82;48.13;;;17.20;99.90;;;;;;4986107;28;20082;-85
2021/06/05 03:56:18;;;;;;;63.63;48.03;;;17.10;99.90;;;;;;4984977;28;20511;-82
2021/06/05 03:58:45;;;;;;;66.80;49.70;;;17.10;99.90;;;;;;4986221;28;20042;-83
2021/06/05 04:01:20;;;;;;;65.18;50.30;;;17.10;99.90;;;;;;4968666;28;20038;-83
2021/06/05 04:03:46;;;;;;;66.80;48.35;;;17.10;99.90;;;;;;4986215;28;20058;-83
2021/06/05 04:06:13;;;;;;;64.30;48.97;;;17.10;99.90;;;;;;4986019;28;20030;-83
2021/06/05 04:08:39;;;;;;;60.55;44.55;;;17.10;99.90;;;;;;4984694;28;20062;-83
2021/06/05 04:11:06;;;;;;;81.55;59.08;;;17.10;99.90;;;;;;4985944;28;20123;-84
2021/06/05 04:13:33;;;;;;;69.53;51.28;;;17.00;99.90;;;;;;4984838;28;20031;-84
2021/06/05 04:15:59;;;;;;;60.63;44.75;;;17.10;99.90;;;;;;4984983;28;20062;-83
2021/06/05 04:18:32;;;;;;;67.85;50.30;;;17.10;99.90;;;;;;4986139;28;20027;-84
2021/06/05 04:20:59;;;;;;;65.90;48.95;;;17.10;99.90;;;;;;4985033;28;20094;-84
2021/06/05 04:23:26;;;;;;;75.97;53.35;;;17.10;99.90;;;;;;4969564;28;20066;-84
2021/06/05 04:25:52;;;;;;;88.95;60.35;;;17.10;99.90;;;;;;4972473;28;20030;-83
2021/06/05 04:28:20;;;;;;;78.53;54.83;;;17.10;99.90;;;;;;4988751;28;20086;-85
2021/06/05 04:30:46;;;;;;;61.67;43.78;;;17.10;99.90;;;;;;4988651;28;20041;-86
2021/06/05 04:33:14;;;;;;;80.07;56.13;;;17.10;99.90;;;;;;4988773;28;20081;-83
2021/06/05 04:35:41;;;;;;;82.05;55.08;;;17.00;99.90;;;;;;4988525;28;20074;-84
2021/06/05 04:38:07;;;;;;;79.10;55.20;;;17.10;99.90;;;;;;4988534;28;20023;-84
2021/06/05 04:40:34;;;;;;;84.25;57.35;;;17.10;99.90;;;;;;4988397;28;20081;-85
2021/06/05 04:43:00;;;;;;;80.22;53.33;;;17.10;99.90;;;;;;4987170;28;20382;-84
2021/06/05 04:45:26;;;;;;;74.43;48.00;;;17.10;99.90;;;;;;4985205;28;20031;-85
2021/06/05 04:47:52;;;;;;;83.35;54.08;;;17.10;99.90;;;;;;4970350;29;20031;-85
2021/06/05 04:50:22;;;;;;;96.57;60.33;;;17.00;99.90;;;;;;4970099;28;20038;-85
2021/06/05 04:52:48;;;;;;;;;;;17.00;99.90;;;;;;4970666;28;20388;-86
2021/06/05 04:55:14;;;;;;;102.75;64.15;;;17.00;99.90;;;;;;4984816;28;19919;-84
2021/06/05 04:57:40;;;;;;;85.57;54.13;;;16.90;99.90;;;;;;4985137;28;20028;-87
2021/06/05 05:00:08;;;;;;;103.75;62.35;;;16.90;99.90;;;;;;4969013;29;20471;-86
2021/06/05 05:02:35;;;;;;;107.03;65.15;;;16.80;99.90;;;;;;4985240;28;20035;-85
2021/06/05 05:05:01;;;;;;;113.05;66.35;;;16.80;99.90;;;;;;4985013;28;20078;-86
2021/06/05 05:07:26;;;;;;;108.22;61.33;;;16.80;99.90;;;;;;4984488;28;20411;-87
2021/06/05 05:09:52;;;;;;;110.13;65.00;;;16.80;99.90;;;;;;4970080;29;20054;-86
2021/06/05 05:12:19;;;;;;;105.35;58.42;;;16.70;99.90;;;;;;4968751;29;20031;-86
2021/06/05 05:14:44;;;;;;;88.45;51.88;;;16.70;99.90;;;;;;4984784;28;20051;-85
2021/06/05 05:17:10;;;;;;;101.38;60.05;;;16.80;99.90;;;;;;4984613;28;20086;-87
2021/06/05 05:19:35;;;;;;;95.40;52.90;;;16.80;99.90;;;;;;4969929;29;20027;-83
2021/06/05 05:22:02;;;;;;;87.35;49.78;;;16.80;99.90;;;;;;4984672;28;20035;-86
2021/06/05 05:24:28;;;;;;;101.28;57.88;;;16.70;99.90;;;;;;4984528;28;20035;-86
2021/06/05 05:26:54;;;;;;;94.68;53.92;;;16.80;99.90;;;;;;4988184;28;20081;-85
2021/06/05 05:29:20;;;;;;;100.13;58.00;;;16.80;99.90;;;;;;4988992;28;20023;-85
2021/06/05 05:31:45;;;;;;;89.35;51.25;;;16.80;99.90;;;;;;4985645;28;20416;-84
2021/06/05 05:34:11;;;;;;;81.50;42.95;;;16.80;99.90;;;;;;4987182;28;20427;-83
2021/06/05 05:36:38;;;;;;;93.70;52.13;;;16.90;99.90;;;;;;4986125;28;20027;-82
2021/06/05 05:39:09;;;;;;;97.65;54.97;;;16.80;99.90;;;;;;4987363;28;20035;-82
2021/06/05 05:41:35;;;;;;;94.07;53.17;;;16.80;99.90;;;;;;4970805;28;20038;-83
2021/06/05 05:44:01;;;;;;;96.72;57.17;;;16.90;99.90;;;;;;4970892;28;20027;-84
2021/06/05 05:46:28;;;;;;;99.22;54.63;;;16.80;99.90;;;;;;5003196;28;20039;-83
2021/06/05 05:48:53;;;;;;;90.50;50.25;;;16.90;99.90;;;;;;5003530;28;20035;-84
2021/06/05 05:51:22;;;;;;;77.43;46.85;;;17.00;99.90;;;;;;4963114;28;20073;-84
2021/06/05 05:53:48;;;;;;;85.40;48.25;;;17.10;99.90;;;;;;4986785;28;20066;-84
2021/06/05 05:56:16;;;;;;;98.28;55.65;;;17.00;99.90;;;;;;4983615;28;20045;-82
2021/06/05 05:58:47;;;;;;;83.05;49.35;;;17.00;99.90;;;;;;4983602;28;20034;-84
2021/06/05 06:01:13;;;;;;;88.78;49.97;;;17.10;99.90;;;;;;4983180;28;20086;-82
2021/06/05 06:03:39;;;;;;;78.90;45.15;;;17.10;99.90;;;;;;4938115;29;20051;-83
2021/06/05 06:06:07;;;;;;;85.25;48.42;;;17.20;99.90;;;;;;4968265;28;20082;-81
2021/06/05 06:08:35;;;;;;;61.15;35.55;;;17.20;99.90;;;;;;4968250;28;20051;-82
2021/06/05 06:11:01;;;;;;;79.40;48.67;;;17.20;99.90;;;;;;4950846;29;20579;-84
2021/06/05 06:13:27;;;;;;;84.53;46.53;;;17.20;99.90;;;;;;4967695;28;20081;-83
2021/06/05 06:15:52;;;;;;;88.32;48.97;;;17.20;99.90;;;;;;4966915;29;20035;-83
2021/06/05 06:18:18;;;;;;;99.55;54.28;;;17.10;99.90;;;;;;4967138;29;20090;-83
2021/06/05 06:20:51;;;;;;;85.53;46.67;;;17.10;99.90;;;;;;4967067;29;20039;-83
2021/06/05 06:23:19;;;;;;;98.43;54.28;;;17.10;99.90;;;;;;4966792;29;20122;-82
2021/06/05 06:25:49;;;;;;;82.22;45.95;;;17.20;99.90;;;;;;4975657;28;20041;-82
2021/06/05 06:28:17;;;;;;;78.93;42.00;;;17.30;99.90;;;;;;4987408;28;20034;-83
2021/06/05 06:30:44;;;;;;;76.97;40.17;;;17.30;99.90;;;;;;4987180;28;20094;-83
2021/06/05 06:33:12;;;;;;;80.78;45.20;;;17.40;99.90;;;;;;4987289;28;20039;-83
2021/06/05 06:35:38;;;;;;;74.22;41.78;;;17.40;99.90;;;;;;4987154;28;20506;-82
2021/06/05 06:38:06;;;;;;;76.03;42.05;;;17.50;99.90;;;;;;4985826;28;20027;-83
2021/06/05 06:40:35;;;;;;;85.28;46.15;;;17.50;99.90;;;;;;4987453;28;20046;-82
2021/06/05 06:43:02;;;;;;;88.65;46.72;;;17.40;99.90;;;;;;4984286;28;20027;-83
2021/06/05 06:45:28;;;;;;;81.88;43.58;;;17.40;99.90;;;;;;4968330;28;20035;-84
2021/06/05 06:47:55;;;;;;;83.32;43.45;;;17.50;99.90;;;;;;4983901;28;20038;-83
2021/06/05 06:50:23;;;;;;;72.90;41.92;;;17.50;99.90;;;;;;4969171;28;20122;-83
2021/06/05 06:52:49;;;;;;;69.07;38.70;;;17.50;99.90;;;;;;4967686;28;20031;-84
2021/06/05 06:55:15;;;;;;;73.95;37.60;;;17.60;99.90;;;;;;4967560;28;20043;-83
2021/06/05 06:57:41;;;;;;;74.88;41.67;;;17.60;99.90;;;;;;4967447;28;20065;-84
2021/06/05 07:00:13;;;;;;;72.53;39.90;;;17.70;99.90;;;;;;4967279;28;20162;-82
2021/06/05 07:02:39;;;;;;;65.10;35.08;;;17.70;99.90;;;;;;4982246;28;20042;-81
2021/06/05 07:05:06;;;;;;;70.13;38.03;;;17.90;99.90;;;;;;4982354;28;20027;-83
2021/06/05 07:07:31;;;;;;;69.90;38.13;;;17.60;99.90;;;;;;4967279;28;20071;-82
2021/06/05 07:09:57;;;;;;;67.95;36.80;;;17.60;99.90;;;;;;4966454;29;20035;-83
2021/06/05 07:12:25;;;;;;;65.50;34.50;;;17.60;99.90;;;;;;4967323;28;20062;-83
2021/06/05 07:14:50;;;;;;;57.33;33.67;;;17.70;99.90;;;;;;4967095;28;20078;-83
2021/06/05 07:17:17;;;;;;;63.13;35.90;;;17.80;99.90;;;;;;4982283;28;20035;-84
2021/06/05 07:19:43;;;;;;;58.72;32.35;;;17.70;99.90;;;;;;4982098;28;20054;-82
2021/06/05 07:22:09;;;;;;;58.13;32.35;;;17.70;99.90;;;;;;4967394;29;20027;-83
2021/06/05 07:24:34;;;;;;;56.15;30.17;;;17.70;99.90;;;;;;4967186;29;20492;-82
2021/06/05 07:27:00;;;;;;;64.57;34.50;;;17.80;99.90;;;;;;4982182;28;20464;-82
2021/06/05 07:29:26;;;;;;;56.03;30.90;;;17.70;99.90;;;;;;4966802;29;20398;-81
2021/06/05 07:31:52;;;;;;;61.03;34.83;;;17.80;99.90;;;;;;4966892;28;20023;-81
2021/06/05 07:34:25;;;;;;;54.40;30.90;;;17.70;99.90;;;;;;4967049;28;20129;-83
2021/06/05 07:36:55;;;;;;;53.35;29.80;;;17.70;99.90;;;;;;4966842;28;20031;-82
2021/06/05 07:39:26;;;;;;;41.50;24.55;;;17.80;99.90;;;;;;4965616;29;20063;-82
2021/06/05 07:41:53;;;;;;;46.58;26.05;;;17.90;99.90;;;;;;4981460;28;20078;-82
2021/06/05 07:44:20;;;;;;;45.97;26.40;;;17.80;99.90;;;;;;4966346;28;20043;-82
2021/06/05 07:46:50;;;;;;;40.65;23.45;;;17.90;99.90;;;;;;4981965;28;20031;-81
2021/06/05 07:49:16;;;;;;;44.20;23.88;;;17.80;99.90;;;;;;4966916;28;20042;-81
2021/06/05 07:51:42;;;;;;;37.53;22.67;;;17.90;99.90;;;;;;4965479;29;20085;-82
2021/06/05 07:54:11;;;;;;;37.45;21.70;;;17.90;99.90;;;;;;4966493;28;20039;-82
2021/06/05 07:56:39;;;;;;;41.10;24.13;;;18.10;99.90;;;;;;4981425;28;20039;-81
2021/06/05 07:59:05;;;;;;;42.97;25.48;;;18.10;99.90;;;;;;4980735;28;20249;-82
2021/06/05 08:01:31;;;;;;;41.40;21.00;;;18.00;99.90;;;;;;4966539;28;20457;-82
2021/06/05 08:04:05;;;;;;;58.38;30.42;;;18.10;99.90;;;;;;4969458;28;20035;-79
2021/06/05 08:06:31;;;;;;;50.05;28.80;;;18.10;99.90;;;;;;4984410;28;20042;-82
2021/06/05 08:08:57;;;;;;;46.65;27.85;;;18.00;99.90;;;;;;4985792;28;20049;-81
2021/06/05 08:11:25;;;;;;;40.10;23.77;;;18.00;99.90;;;;;;4985782;28;20030;-81
2021/06/05 08:13:51;;;;;;;35.25;20.77;;;18.30;99.90;;;;;;4984199;28;20077;-80
2021/06/05 08:16:17;;;;;;;34.88;21.38;;;18.20;99.90;;;;;;4984930;28;20054;-82
2021/06/05 08:18:42;;;;;;;35.35;22.38;;;18.60;99.90;;;;;;4986064;28;20031;-82
2021/06/05 08:21:14;;;;;;;38.80;23.70;;;18.70;99.90;;;;;;4985550;28;20034;-82
2021/06/05 08:23:41;;;;;;;41.40;23.60;;;18.50;99.90;;;;;;4984439;28;20094;-81
2021/06/05 08:26:10;;;;;;;38.33;23.42;;;18.30;99.90;;;;;;4981153;28;20031;-82
2021/06/05 08:28:37;;;;;;;38.40;22.33;;;18.40;99.90;;;;;;4981188;28;20408;-81
2021/06/05 08:31:07;;;;;;;37.85;22.70;;;18.40;99.90;;;;;;4966749;28;20031;-81
2021/06/05 08:33:34;;;;;;;39.97;23.58;;;18.40;99.90;;;;;;4964969;29;20039;-83
2021/06/05 08:36:00;;;;;;;48.97;28.00;;;18.40;99.90;;;;;;4981075;28;20047;-83
2021/06/05 08:38:29;;;;;;;39.63;25.33;;;18.30;99.90;;;;;;4965379;29;20117;-82
2021/06/05 08:41:16;;;;;;;48.15;26.65;;;18.30;99.90;;;;;;4964867;29;20113;-82
2021/06/05 08:43:51;;;;;;;33.72;21.70;;;18.50;99.90;;;;;;4971363;28;20032;-79
2021/06/05 08:46:26;;;;;;;35.03;21.13;;;18.60;99.90;;;;;;4984023;28;20086;-81
2021/06/05 08:48:53;;;;;;;35.53;22.85;;;18.70;99.90;;;;;;4999785;28;20106;-81
2021/06/05 08:51:52;;;;;;;31.90;20.92;;;18.80;99.90;;;;;;4983938;28;20415;-81
2021/06/05 08:54:39;;;;;;;28.35;18.90;;;18.80;99.90;;;;;;4999847;28;20109;-80
2021/06/05 08:57:25;;;;;;;28.33;19.15;;;18.90;99.90;;;;;;4984346;28;20062;-81
2021/06/05 08:59:54;;;;;;;29.23;19.90;;;18.80;99.90;;;;;;5000193;28;20031;-81
2021/06/05 09:02:24;;;;;;;25.65;18.05;;;18.70;99.90;;;;;;5000175;28;20037;-81
2021/06/05 09:04:50;;;;;;;23.42;15.63;;;18.90;99.90;;;;;;4985483;28;20114;-82
2021/06/05 09:07:16;;;;;;;23.58;17.23;;;19.20;99.90;;;;;;4984260;28;20392;-81
2021/06/05 09:09:46;;;;;;;22.77;17.05;;;19.10;99.90;;;;;;5001465;28;20030;-81
2021/06/05 09:12:13;;;;;;;22.50;15.57;;;19.30;99.90;;;;;;5003813;28;20045;-81
2021/06/05 09:14:39;;;;;;;22.27;17.55;;;19.20;99.90;;;;;;5003129;28;20057;-81
2021/06/05 09:17:16;;;;;;;23.20;17.00;;;19.10;99.90;;;;;;5003507;28;20038;-81
2021/06/05 09:20:14;;;;;;;26.15;18.55;;;19.20;99.90;;;;;;5004017;28;20034;-82
2021/06/05 09:23:01;;;;;;;23.95;17.50;;;19.00;99.90;;;;;;5003695;28;20095;-83
2021/06/05 09:25:38;;;;;;;24.05;15.43;;;19.10;99.90;;;;;;4988518;28;20035;-81
2021/06/05 09:28:13;;;;;;;27.65;19.27;;;19.40;99.90;;;;;;4988863;28;20027;-83
2021/06/05 09:30:41;;;;;;;36.33;22.13;;;19.30;99.90;;;;;;4988809;28;20041;-82
2021/06/05 09:33:11;;;;;;;29.73;20.40;;;19.10;99.90;;;;;;4987361;28;20030;-81
2021/06/05 09:35:46;;;;;;;40.83;25.10;;;19.10;99.90;;;;;;4987041;28;20043;-81
2021/06/05 09:38:38;;;;;;;34.63;22.25;;;18.90;99.90;;;;;;4987278;28;20110;-83
2021/06/05 09:41:21;;;;;;;35.63;22.45;;;18.80;99.90;;;;;;4988479;28;20037;-81
2021/06/05 09:43:49;;;;;;;33.63;21.70;;;18.80;99.90;;;;;;4980293;28;20074;-82
2021/06/05 09:46:33;;;;;;;31.58;22.17;;;18.90;99.90;;;;;;4968081;28;20110;-82
2021/06/05 09:49:28;;;;;;;29.42;19.75;;;18.80;99.90;;;;;;4968218;28;20123;-81
2021/06/05 09:52:05;;;;;;;28.90;19.67;;;18.90;99.90;;;;;;4960548;28;20603;-82
2021/06/05 09:54:55;;;;;;;28.80;19.63;;;18.90;99.90;;;;;;4983280;28;20138;-81
2021/06/05 09:57:30;;;;;;;32.75;22.50;;;18.80;99.90;;;;;;4968151;28;20038;-81
2021/06/05 10:00:08;;;;;;;32.58;21.85;;;18.50;99.90;;;;;;4983504;28;20182;-81
2021/06/05 10:02:46;;;;;;;25.65;19.50;;;18.50;99.90;;;;;;4982458;28;20030;-81
2021/06/05 10:05:49;;;;;;;29.00;20.38;;;18.60;99.90;;;;;;5002435;28;20034;-82
2021/06/05 10:08:40;;;;;;;24.45;18.63;;;18.60;99.90;;;;;;4950163;29;20355;-81
2021/06/05 10:11:31;;;;;;;25.60;17.00;;;18.60;99.90;;;;;;4966032;29;20443;-81
2021/06/05 10:14:02;;;;;;;27.15;18.02;;;18.60;99.90;;;;;;4960442;29;20053;-81
2021/06/05 10:16:28;;;;;;;29.15;20.92;;;18.80;99.90;;;;;;4949911;29;20050;-82
2021/06/05 10:19:04;;;;;;;29.90;20.10;;;18.60;99.90;;;;;;4949967;29;20103;-81
2021/06/05 10:21:44;;;;;;;26.40;19.48;;;18.70;99.90;;;;;;4933434;29;20174;-81
2021/06/05 10:24:39;;;;;;;23.88;17.45;;;18.70;99.90;;;;;;4959946;29;20058;-80
2021/06/05 10:27:12;;;;;;;22.27;16.33;;;18.90;99.90;;;;;;4948433;28;20454;-80
2021/06/05 10:29:53;;;;;;;20.58;16.30;;;19.20;99.90;;;;;;4963406;29;20047;-81
2021/06/05 10:32:41;;;;;;;20.00;14.93;;;19.30;99.90;;;;;;4943352;29;20027;-81
2021/06/05 10:35:26;;;;;;;22.00;16.33;;;19.40;99.90;;;;;;4964018;29;20062;-81
2021/06/05 10:38:03;;;;;;;18.67;14.05;;;19.30;99.90;;;;;;4964524;29;20069;-80
2021/06/05 10:40:29;;;;;;;15.98;13.10;;;19.30;99.90;;;;;;4964417;29;20077;-81
2021/06/05 10:42:56;;;;;;;14.02;11.93;;;19.10;99.90;;;;;;4981051;28;20047;-80
2021/06/05 10:45:38;;;;;;;15.07;12.52;;;19.00;99.90;;;;;;4984794;28;20039;-81
2021/06/05 10:48:22;;;;;;;11.88;9.85;;;18.90;99.90;;;;;;4968025;28;20150;-82
2021/06/05 10:51:02;;;;;;;10.98;9.77;;;18.90;99.90;;;;;;4984843;28;20035;-80
2021/06/05 10:53:34;;;;;;;12.65;9.60;;;18.80;99.90;;;;;;4969330;28;20026;-81
2021/06/05 10:56:17;;;;;;;8.82;7.93;;;18.80;99.90;;;;;;4985566;28;20050;-80
2021/06/05 10:58:52;;;;;;;13.45;11.80;;;18.70;99.90;;;;;;4987134;28;20062;-80
2021/06/05 11:01:21;;;;;;;14.70;12.75;;;18.50;99.90;;;;;;4968012;28;20031;-80
2021/06/05 11:03:54;;;;;;;12.15;10.95;;;18.30;99.90;;;;;;4985530;28;20058;-81
2021/06/05 11:06:23;;;;;;;14.40;12.23;;;18.50;99.90;;;;;;4985427;28;20023;-81
2021/06/05 11:08:57;;;;;;;13.85;10.85;;;18.40;99.90;;;;;;4986516;28;20054;-80
2021/06/05 11:11:35;;;;;;;13.15;11.75;;;18.40;99.90;;;;;;4969289;28;20035;-81
2021/06/05 11:14:05;;;;;;;14.05;11.88;;;18.50;99.90;;;;;;4985473;28;20047;-81
2021/06/05 11:16:59;;;;;;;15.82;13.70;;;18.40;99.90;;;;;;4985570;28;20290;-79
2021/06/05 11:19:36;;;;;;;14.00;12.48;;;18.30;99.90;;;;;;4969313;28;20027;-80
2021/06/05 11:22:05;;;;;;;13.88;12.48;;;18.30;99.90;;;;;;4985413;28;20031;-81
2021/06/05 11:24:31;;;;;;;13.40;10.90;;;18.40;99.90;;;;;;4985360;28;20030;-80
2021/06/05 11:26:58;;;;;;;13.50;11.52;;;18.40;99.90;;;;;;4965695;28;20043;-80
2021/06/05 11:29:27;;;;;;;14.40;12.75;;;18.30;99.90;;;;;;4966026;29;20037;-80
2021/06/05 11:32:17;;;;;;;13.40;11.98;;;18.30;99.90;;;;;;4965664;28;20412;-79
2021/06/05 11:34:42;;;;;;;13.65;12.25;;;18.30;99.90;;;;;;4959636;29;20082;-80
2021/06/05 11:37:14;;;;;;;13.00;11.48;;;18.50;99.90;;;;;;4966788;29;20035;-81
2021/06/05 11:39:52;;;;;;;14.00;12.60;;;18.70;99.90;;;;;;4967094;28;20035;-80
2021/06/05 11:42:20;;;;;;;14.57;13.18;;;18.80;99.90;;;;;;4965539;29;20544;-79
2021/06/05 11:44:59;;;;;;;13.75;12.32;;;18.80;99.90;;;;;;4982254;28;20058;-80
2021/06/05 11:47:24;;;;;;;12.50;11.20;;;18.80;99.90;;;;;;4986226;28;20027;-80
2021/06/05 11:50:10;;;;;;;13.55;12.23;;;18.80;99.90;;;;;;4968697;28;20045;-80
2021/06/05 11:52:40;;;;;;;12.50;11.25;;;18.80;99.90;;;;;;4984869;28;20177;-80
2021/06/05 11:55:06;;;;;;;11.82;10.68;;;18.90;99.90;;;;;;5001032;28;20138;-80
2021/06/05 11:57:38;;;;;;;12.23;11.02;;;18.60;99.90;;;;;;4984740;28;20034;-80
2021/06/05 12:00:08;;;;;;;12.95;10.75;;;18.70;99.90;;;;;;4968902;28;20102;-81
2021/06/05 12:02:42;;;;;;;13.73;11.68;;;18.70;99.90;;;;;;4968860;28;20031;-80
2021/06/05 12:05:14;;;;;;;11.68;10.25;;;18.60;99.90;;;;;;4984713;28;20459;-80
2021/06/05 12:07:42;;;;;;;12.73;11.40;;;18.70;99.90;;;;;;4968289;28;20380;-80
2021/06/05 12:10:11;;;;;;;16.20;12.20;;;18.70;99.90;;;;;;4968439;28;20039;-80
2021/06/05 12:12:48;;;;;;;13.60;12.07;;;18.70;99.90;;;;;;4968332;28;20027;-80
2021/06/05 12:15:32;;;;;;;13.85;12.25;;;18.70;99.90;;;;;;4984586;28;20046;-80
2021/06/05 12:18:01;;;;;;;14.60;12.65;;;18.80;99.90;;;;;;4986044;28;20037;-80
2021/06/05 12:20:34;;;;;;;15.23;11.00;;;18.70;99.90;;;;;;4985818;28;20086;-80
2021/06/05 12:23:21;;;;;;;14.60;13.10;;;18.70;99.90;;;;;;4984608;28;20411;-79
2021/06/05 12:25:48;;;;;;;12.90;11.63;;;18.70;99.90;;;;;;4985755;28;20065;-80
2021/06/05 12:28:16;;;;;;;13.20;11.80;;;18.70;99.90;;;;;;4984752;28;20045;-80
2021/06/05 12:30:46;;;;;;;14.75;13.25;;;18.60;99.90;;;;;;4985780;28;20464;-79
2021/06/05 12:33:24;;;;;;;13.77;12.45;;;18.50;99.90;;;;;;4985757;28;20034;-80
2021/06/05 12:35:50;;;;;;;13.23;11.82;;;18.50;99.90;;;;;;4984235;28;20053;-79
2021/06/05 12:38:38;;;;;;;15.48;13.27;;;18.70;99.90;;;;;;4968174;28;20114;-80
2021/06/05 12:41:10;;;;;;;15.68;14.00;;;18.60;99.90;;;;;;4980149;28;20030;-80
2021/06/05 12:43:40;;;;;;;13.77;12.48;;;18.60;99.90;;;;;;4996506;28;20089;-80
2021/06/05 12:46:10;;;;;;;13.73;11.85;;;18.60;99.90;;;;;;4970764;28;20058;-80
2021/06/05 12:48:37;;;;;;;16.77;14.98;;;18.60;99.90;;;;;;4985959;28;20045;-80